Time;durP1;ratioP1;P1;durP2;ratioP2;P2;SDS_P1;SDS_P2;PMS_P1;PMS_P2;Temp;Humidity;BMP_temperature;BMP_pressure;BME280_temperature;BME280_humidity;BME280_pressure;Samples;Min_cycle;Max_cycle;Signal;HPM_P1;HPM_P2
2022/07/05 00:00:20;;;;;;;7.05;5.70;;;12.90;99.90;;;;;;5086748;28;20040;-75
2022/07/05 00:02:46;;;;;;;7.00;6.22;;;12.80;99.90;;;;;;5087473;28;20431;-74
2022/07/05 00:05:12;;;;;;;6.63;3.92;;;12.80;99.90;;;;;;5088593;28;20051;-75
2022/07/05 00:07:38;;;;;;;5.32;4.68;;;12.70;99.90;;;;;;5073181;28;20055;-75
2022/07/05 00:10:07;;;;;;;5.72;4.90;;;12.70;99.90;;;;;;5106142;27;20048;-75
2022/07/05 00:12:33;;;;;;;4.68;4.18;;;12.60;99.90;;;;;;5110951;27;20052;-75
2022/07/05 00:15:00;;;;;;;6.30;4.78;;;12.60;99.90;;;;;;5061165;28;20042;-75
2022/07/05 00:17:26;;;;;;;4.57;3.60;;;12.60;99.90;;;;;;5101531;28;20050;-75
2022/07/05 00:19:52;;;;;;;5.03;3.47;;;12.60;99.90;;;;;;5105000;28;20067;-76
2022/07/05 00:22:18;;;;;;;5.13;3.70;;;12.60;99.90;;;;;;5084060;28;20604;-75
2022/07/05 00:24:44;;;;;;;5.60;3.65;;;12.50;99.90;;;;;;5071538;28;20121;-75
2022/07/05 00:27:10;;;;;;;7.43;3.70;;;12.40;99.90;;;;;;5071533;28;20124;-75
2022/07/05 00:29:35;;;;;;;3.80;3.33;;;12.40;99.90;;;;;;5112962;27;20130;-75
2022/07/05 00:32:04;;;;;;;4.50;3.40;;;12.30;99.90;;;;;;5076556;28;20042;-75
2022/07/05 00:34:30;;;;;;;5.70;5.10;;;12.30;99.90;;;;;;5098167;28;20044;-75
2022/07/05 00:36:56;;;;;;;7.53;6.55;;;12.30;99.90;;;;;;5058725;28;20514;-75
2022/07/05 00:39:22;;;;;;;7.13;6.07;;;12.20;99.90;;;;;;5073245;28;20040;-75
2022/07/05 00:41:48;;;;;;;8.43;6.20;;;12.20;99.90;;;;;;5086670;28;20490;-75
2022/07/05 00:44:14;;;;;;;7.13;6.15;;;12.10;99.90;;;;;;5084963;28;20050;-75
2022/07/05 00:46:43;;;;;;;5.88;5.05;;;12.10;99.90;;;;;;5060075;28;20039;-75
2022/07/05 00:49:09;;;;;;;5.78;4.75;;;12.10;99.90;;;;;;5086809;28;20756;-75
2022/07/05 00:51:37;;;;;;;6.53;4.82;;;12.20;99.90;;;;;;5095389;27;20123;-75
2022/07/05 00:54:07;;;;;;;8.85;4.95;;;12.10;99.90;;;;;;5090630;28;20106;-75
2022/07/05 00:56:32;;;;;;;5.53;4.43;;;12.10;99.90;;;;;;5071963;28;20113;-74
2022/07/05 00:58:58;;;;;;;7.00;5.28;;;12.10;99.90;;;;;;5072993;28;20048;-75
2022/07/05 01:01:27;;;;;;;7.15;4.85;;;12.10;99.90;;;;;;5079434;28;20870;-75
2022/07/05 01:03:53;;;;;;;5.97;5.38;;;12.10;99.90;;;;;;5062978;28;20075;-75
2022/07/05 01:10:01;;;;;;;7.53;5.88;;;12.10;99.90;;;;;;5469357;22;20133;-78
2022/07/05 01:12:27;;;;;;;8.93;7.93;;;12.00;99.90;;;;;;4998161;28;20687;-78
2022/07/05 01:14:57;;;;;;;7.82;7.00;;;12.10;99.90;;;;;;5004992;28;20095;-77
2022/07/05 01:17:27;;;;;;;7.97;7.28;;;12.10;99.90;;;;;;5002346;28;20034;-78
2022/07/05 01:19:57;;;;;;;7.25;5.75;;;12.10;99.90;;;;;;5005226;28;20054;-77
2022/07/05 01:22:26;;;;;;;;;;;12.10;99.90;;;;;;4992257;28;20138;-77
2022/07/05 01:24:53;;;;;;;7.88;5.80;;;12.00;99.90;;;;;;5026439;28;19929;-78
2022/07/05 01:27:19;;;;;;;6.90;5.10;;;11.90;99.90;;;;;;4999090;28;20044;-78
2022/07/05 01:29:45;;;;;;;7.18;5.55;;;11.90;99.90;;;;;;4994422;28;20045;-76
2022/07/05 01:32:12;;;;;;;7.57;6.25;;;11.90;99.90;;;;;;5014613;28;20050;-76
2022/07/05 01:34:40;;;;;;;9.57;8.68;;;11.90;99.90;;;;;;5014689;28;20119;-76
2022/07/05 01:37:06;;;;;;;10.27;9.23;;;11.80;99.90;;;;;;5003871;28;20048;-77
2022/07/05 01:39:32;;;;;;;10.70;9.02;;;11.80;99.90;;;;;;5013917;28;20041;-76
2022/07/05 01:41:58;;;;;;;11.13;8.68;;;11.80;99.90;;;;;;4996659;28;20088;-77
2022/07/05 01:44:24;;;;;;;10.43;9.13;;;11.80;99.90;;;;;;5014336;28;20412;-77
2022/07/05 01:46:54;;;;;;;10.35;9.23;;;11.80;99.90;;;;;;4983623;28;20046;-77
2022/07/05 01:49:23;;;;;;;9.57;8.18;;;11.80;99.90;;;;;;5019163;28;20061;-76
2022/07/05 01:51:57;;;;;;;8.15;7.28;;;11.80;99.90;;;;;;5008000;28;20066;-77
2022/07/05 01:54:26;;;;;;;9.02;8.23;;;11.70;99.90;;;;;;5019708;28;20048;-77
2022/07/05 01:56:52;;;;;;;9.38;8.23;;;11.80;99.90;;;;;;5000065;28;20053;-77
2022/07/05 01:59:18;;;;;;;6.68;5.90;;;11.80;99.90;;;;;;5019973;28;20119;-77
2022/07/05 02:01:43;;;;;;;6.35;5.72;;;11.80;99.90;;;;;;5009224;28;20040;-77
2022/07/05 02:04:10;;;;;;;9.07;5.88;;;11.80;99.90;;;;;;5003507;28;20029;-76
2022/07/05 02:06:36;;;;;;;7.25;6.20;;;11.70;99.90;;;;;;5006330;28;20147;-77
2022/07/05 02:09:05;;;;;;;8.40;6.22;;;11.70;99.90;;;;;;5018459;28;20073;-77
2022/07/05 02:11:31;;;;;;;7.53;5.97;;;11.70;99.90;;;;;;5011921;28;20041;-77
2022/07/05 02:13:58;;;;;;;6.28;5.45;;;11.70;99.90;;;;;;5002786;28;20112;-77
2022/07/05 02:16:25;;;;;;;6.55;5.90;;;11.70;99.90;;;;;;5005423;28;20041;-77
2022/07/05 02:18:52;;;;;;;6.80;6.10;;;11.70;99.90;;;;;;5018944;28;20060;-77
2022/07/05 02:21:18;;;;;;;6.30;5.60;;;11.70;99.90;;;;;;5020432;28;20096;-77
2022/07/05 02:23:43;;;;;;;11.35;8.85;;;11.70;99.90;;;;;;5016348;28;20484;-77
2022/07/05 02:26:09;;;;;;;34.30;13.88;;;11.70;99.90;;;;;;5000784;28;20041;-76
2022/07/05 02:28:35;;;;;;;12.30;10.98;;;11.60;99.90;;;;;;5000041;28;20103;-77
2022/07/05 02:31:01;;;;;;;10.18;8.05;;;11.50;99.90;;;;;;5000096;28;20136;-77
2022/07/05 02:33:27;;;;;;;9.45;8.63;;;11.40;99.90;;;;;;5000876;28;20509;-77
2022/07/05 02:35:55;;;;;;;9.25;8.35;;;11.50;99.90;;;;;;5019465;28;20057;-77
2022/07/05 02:38:21;;;;;;;9.55;8.50;;;11.50;99.90;;;;;;5020035;28;20049;-78
2022/07/05 02:40:47;;;;;;;7.28;6.57;;;11.60;99.90;;;;;;5022211;28;20906;-78
2022/07/05 02:43:13;;;;;;;7.63;6.72;;;11.50;99.90;;;;;;4990342;28;20137;-78
2022/07/05 02:45:39;;;;;;;7.45;6.78;;;11.50;99.90;;;;;;4988078;28;20594;-78
2022/07/05 02:48:04;;;;;;;8.13;7.32;;;11.50;99.90;;;;;;4996711;28;20033;-78
2022/07/05 02:50:30;;;;;;;8.68;7.70;;;11.60;99.90;;;;;;4997619;28;20041;-77
2022/07/05 02:52:56;;;;;;;9.60;8.63;;;11.60;99.90;;;;;;5006638;28;20065;-77
2022/07/05 02:55:22;;;;;;;8.57;7.78;;;11.50;99.90;;;;;;5009637;28;20046;-76
2022/07/05 02:57:50;;;;;;;7.97;7.18;;;11.50;99.90;;;;;;5004282;28;20049;-77
2022/07/05 03:00:16;;;;;;;9.23;8.23;;;11.50;99.90;;;;;;5000899;28;20037;-77
2022/07/05 03:02:42;;;;;;;8.18;7.38;;;11.50;99.90;;;;;;4991796;28;20552;-76
2022/07/05 03:05:08;;;;;;;8.02;7.25;;;11.40;99.90;;;;;;4983757;28;20045;-76
2022/07/05 03:07:33;;;;;;;7.10;6.43;;;11.40;99.90;;;;;;5016323;28;20500;-77
2022/07/05 03:09:59;;;;;;;9.00;8.20;;;11.40;99.90;;;;;;5004847;28;20044;-76
2022/07/05 03:12:25;;;;;;;9.15;8.35;;;11.30;99.90;;;;;;5020612;28;20050;-77
2022/07/05 03:14:51;;;;;;;9.85;8.95;;;11.30;99.90;;;;;;5025186;28;20510;-77
2022/07/05 03:17:17;;;;;;;9.73;8.02;;;11.30;99.90;;;;;;4991134;28;20100;-78
2022/07/05 03:19:42;;;;;;;10.13;9.20;;;11.30;99.90;;;;;;5015488;28;20698;-78
2022/07/05 03:22:08;;;;;;;8.65;7.82;;;11.30;99.90;;;;;;5012968;28;20447;-77
2022/07/05 03:24:34;;;;;;;13.38;11.95;;;11.20;99.90;;;;;;5018738;28;20072;-78
2022/07/05 03:27:03;;;;;;;9.00;8.05;;;11.20;99.90;;;;;;5001319;28;20038;-78
2022/07/05 03:29:29;;;;;;;13.52;11.82;;;11.20;99.90;;;;;;5024853;28;20077;-77
2022/07/05 03:31:54;;;;;;;10.00;9.07;;;11.20;99.90;;;;;;5006081;28;20508;-78
2022/07/05 03:34:20;;;;;;;10.43;9.45;;;11.10;99.90;;;;;;5026120;28;20049;-78
2022/07/05 03:36:46;;;;;;;10.88;9.70;;;11.10;99.90;;;;;;5011337;28;20048;-76
2022/07/05 03:39:12;;;;;;;12.40;11.30;;;11.20;99.90;;;;;;5024937;28;20122;-77
2022/07/05 03:41:38;;;;;;;10.80;9.82;;;11.20;99.90;;;;;;4993298;28;20045;-76
2022/07/05 03:44:04;;;;;;;11.32;10.30;;;11.30;99.90;;;;;;5022188;28;20424;-76
2022/07/05 03:46:30;;;;;;;10.05;9.05;;;11.30;99.90;;;;;;5007510;28;20094;-76
2022/07/05 03:48:55;;;;;;;14.57;13.05;;;11.30;99.90;;;;;;5024143;28;20871;-76
2022/07/05 03:51:24;;;;;;;13.80;12.50;;;11.30;99.90;;;;;;4988394;28;20052;-76
2022/07/05 03:53:50;;;;;;;14.15;12.48;;;11.20;99.90;;;;;;5021606;28;20834;-75
2022/07/05 03:56:19;;;;;;;12.80;11.48;;;11.20;99.90;;;;;;4987117;28;20054;-76
2022/07/05 03:58:47;;;;;;;10.43;9.45;;;11.10;99.90;;;;;;4988142;28;20196;-76
2022/07/05 04:01:13;;;;;;;11.80;10.68;;;11.10;99.90;;;;;;5024504;28;20053;-76
2022/07/05 04:03:40;;;;;;;19.05;17.20;;;11.10;99.90;;;;;;5019975;28;20053;-76
2022/07/05 04:06:06;;;;;;;12.77;10.15;;;11.10;99.90;;;;;;5006703;28;20057;-76
2022/07/05 04:08:35;;;;;;;14.13;12.75;;;11.10;99.90;;;;;;5026281;28;20512;-76
2022/07/05 04:11:01;;;;;;;12.23;11.02;;;11.10;99.90;;;;;;5018812;28;20046;-76
2022/07/05 04:13:27;;;;;;;15.65;14.07;;;11.20;99.90;;;;;;5027902;28;20138;-78
2022/07/05 04:15:56;;;;;;;12.35;11.13;;;11.20;99.90;;;;;;5021744;28;20686;-78
2022/07/05 04:18:22;;;;;;;12.88;11.65;;;11.30;99.90;;;;;;5003276;28;20057;-76
2022/07/05 04:20:48;;;;;;;12.85;11.63;;;11.30;99.90;;;;;;5020590;28;20045;-76
2022/07/05 04:23:17;;;;;;;19.83;17.83;;;11.30;99.90;;;;;;5011554;28;20463;-76
2022/07/05 04:25:43;;;;;;;12.57;11.27;;;11.40;99.90;;;;;;4999811;28;20177;-76
2022/07/05 04:28:09;;;;;;;13.32;12.05;;;11.50;99.90;;;;;;4985023;28;20045;-77
2022/07/05 04:30:34;;;;;;;15.40;13.88;;;11.50;99.90;;;;;;5009218;28;20132;-77
2022/07/05 04:33:00;;;;;;;18.10;16.30;;;11.60;99.90;;;;;;5006569;28;20045;-78
2022/07/05 04:35:26;;;;;;;16.90;15.23;;;11.60;99.90;;;;;;4988716;28;20042;-78
2022/07/05 04:37:55;;;;;;;16.70;15.10;;;11.60;99.90;;;;;;5018945;28;20563;-77
2022/07/05 04:40:21;;;;;;;14.07;12.57;;;11.70;99.90;;;;;;4993960;28;20041;-78
2022/07/05 04:42:47;;;;;;;14.20;12.90;;;11.70;99.90;;;;;;4997558;28;20062;-77
2022/07/05 04:45:12;;;;;;;21.63;19.52;;;11.80;99.90;;;;;;5002102;28;20157;-78
2022/07/05 04:47:41;;;;;;;14.05;12.65;;;11.80;99.90;;;;;;4986623;28;20062;-78
2022/07/05 04:50:07;;;;;;;16.88;15.27;;;11.90;99.90;;;;;;5004680;28;20629;-78
2022/07/05 04:52:34;;;;;;;14.85;13.45;;;11.90;99.90;;;;;;5019697;28;20124;-76
2022/07/05 04:55:00;;;;;;;15.52;14.13;;;12.00;99.90;;;;;;5004626;28;20496;-76
2022/07/05 04:57:26;;;;;;;17.52;15.68;;;12.10;99.90;;;;;;4996280;28;20102;-76
2022/07/05 04:59:51;;;;;;;17.02;15.32;;;12.20;99.90;;;;;;5005668;28;20240;-76
2022/07/05 05:02:17;;;;;;;15.68;14.13;;;12.30;99.90;;;;;;5003125;28;20041;-76
2022/07/05 05:04:43;;;;;;;17.30;15.50;;;12.40;99.90;;;;;;4986161;28;20077;-76
2022/07/05 05:07:09;;;;;;;15.88;14.38;;;12.40;99.90;;;;;;4997445;28;20057;-76
2022/07/05 05:09:38;;;;;;;16.15;14.68;;;12.60;99.90;;;;;;4999316;28;20041;-76
2022/07/05 05:12:04;;;;;;;17.10;15.60;;;12.70;99.90;;;;;;5002523;28;20046;-76
2022/07/05 05:14:30;;;;;;;18.27;16.55;;;12.80;99.90;;;;;;4989084;28;20057;-77
2022/07/05 05:16:55;;;;;;;15.77;14.38;;;12.90;99.90;;;;;;4985245;28;20064;-77
2022/07/05 05:19:21;;;;;;;15.98;14.60;;;12.90;99.90;;;;;;5018143;28;20091;-76
2022/07/05 05:21:47;;;;;;;14.88;13.68;;;12.90;99.90;;;;;;4987437;28;20103;-76
2022/07/05 05:24:13;;;;;;;17.17;15.57;;;12.90;99.90;;;;;;4999068;28;20049;-76
2022/07/05 05:26:39;;;;;;;17.58;16.17;;;13.00;99.90;;;;;;5010189;28;20053;-76
2022/07/05 05:29:04;;;;;;;15.73;14.40;;;13.00;99.90;;;;;;4989217;28;20120;-76
2022/07/05 05:31:30;;;;;;;16.98;15.48;;;13.20;99.90;;;;;;4997972;28;20052;-76
2022/07/05 05:33:56;;;;;;;16.88;15.25;;;13.20;99.90;;;;;;5000968;28;20771;-76
2022/07/05 05:36:28;;;;;;;17.00;15.50;;;13.30;99.90;;;;;;5004674;28;20041;-76
2022/07/05 05:38:54;;;;;;;15.73;14.23;;;13.40;99.90;;;;;;5022228;28;20057;-76
2022/07/05 05:41:19;;;;;;;15.50;14.10;;;13.50;99.90;;;;;;5004352;28;20045;-76
2022/07/05 05:43:45;;;;;;;15.35;13.95;;;13.60;99.90;;;;;;5014084;28;20097;-76
2022/07/05 05:46:11;;;;;;;14.10;12.80;;;13.70;99.90;;;;;;5015588;28;20457;-76
2022/07/05 05:48:37;;;;;;;14.50;13.15;;;13.80;99.90;;;;;;4988480;28;20052;-76
2022/07/05 05:51:04;;;;;;;14.00;12.70;;;13.90;99.90;;;;;;4968662;28;20232;-77
2022/07/05 05:53:30;;;;;;;12.77;11.45;;;14.00;99.90;;;;;;4982476;28;20052;-76
2022/07/05 05:55:56;;;;;;;12.00;11.00;;;14.10;99.90;;;;;;4988893;28;20042;-76
2022/07/05 05:58:24;;;;;;;12.38;11.25;;;14.20;99.90;;;;;;4973569;28;20048;-76
2022/07/05 06:00:52;;;;;;;12.02;10.90;;;14.30;99.90;;;;;;5016406;28;20400;-77
2022/07/05 06:03:27;;;;;;;12.73;11.48;;;14.40;99.90;;;;;;4995862;28;20073;-76
2022/07/05 06:05:56;;;;;;;10.82;9.20;;;14.50;99.90;;;;;;5000969;28;20061;-77
2022/07/05 06:08:25;;;;;;;9.85;8.95;;;14.60;99.90;;;;;;4974457;28;20052;-81
2022/07/05 06:10:51;;;;;;;10.80;8.55;;;14.70;99.90;;;;;;5000938;28;20599;-82
2022/07/05 06:13:17;;;;;;;8.23;7.43;;;14.80;99.90;;;;;;4994689;28;20444;-82
2022/07/05 06:15:43;;;;;;;9.40;8.02;;;14.90;99.90;;;;;;4991974;28;20052;-82
2022/07/05 06:18:10;;;;;;;7.03;6.28;;;15.10;99.90;;;;;;5005346;28;20049;-77
2022/07/05 06:20:38;;;;;;;9.85;6.68;;;15.10;99.90;;;;;;5006151;28;20502;-76
2022/07/05 06:23:05;;;;;;;7.03;5.28;;;15.30;99.90;;;;;;5004548;28;20171;-76
2022/07/05 06:25:32;;;;;;;5.35;4.75;;;15.30;99.90;;;;;;5022056;28;20052;-77
2022/07/05 06:28:03;;;;;;;7.13;5.10;;;15.50;99.90;;;;;;5001461;28;20080;-77
2022/07/05 06:30:32;;;;;;;7.43;5.18;;;15.60;99.90;;;;;;5008985;28;20128;-76
2022/07/05 06:32:58;;;;;;;8.52;5.10;;;15.70;99.90;;;;;;4999783;28;20038;-77
2022/07/05 06:35:24;;;;;;;6.80;4.10;;;15.70;99.90;;;;;;5007678;28;20037;-76
2022/07/05 06:37:54;;;;;;;6.75;2.90;;;15.90;99.90;;;;;;5012979;28;20698;-77
2022/07/05 06:40:28;;;;;;;4.35;2.15;;;15.90;99.90;;;;;;5004726;28;20043;-77
2022/07/05 06:42:56;;;;;;;3.92;1.40;;;16.10;99.90;;;;;;5002045;28;20099;-77
2022/07/05 06:45:26;;;;;;;3.83;1.33;;;16.20;99.90;;;;;;5015335;28;20046;-77
2022/07/05 06:48:21;;;;;;;10.50;1.58;;;16.40;99.90;;;;;;5018687;28;20570;-77
2022/07/05 06:50:47;;;;;;;2.65;1.30;;;16.60;99.90;;;;;;5009826;28;20049;-76
2022/07/05 06:53:13;;;;;;;3.30;1.20;;;16.80;99.90;;;;;;5002027;28;20049;-77
2022/07/05 06:55:44;;;;;;;3.80;1.02;;;16.90;99.90;;;;;;5002296;28;20049;-77
2022/07/05 06:58:11;;;;;;;4.05;1.33;;;17.10;99.90;;;;;;5007296;28;20140;-77
2022/07/05 07:00:38;;;;;;;4.78;1.23;;;17.20;99.90;;;;;;5006238;28;20049;-77
2022/07/05 07:03:03;;;;;;;3.50;1.20;;;17.30;99.90;;;;;;5017720;28;20044;-77
2022/07/05 07:05:29;;;;;;;3.35;0.98;;;17.30;99.90;;;;;;4998192;28;20764;-77
2022/07/05 07:10:39;;;;;;;3.75;0.70;;;17.20;99.90;;;;;;5002115;28;20057;-77
2022/07/05 07:13:05;;;;;;;3.63;0.93;;;17.20;99.90;;;;;;5018690;28;20045;-76
2022/07/05 07:15:33;;;;;;;4.25;1.10;;;17.20;99.90;;;;;;5006405;28;20107;-77
2022/07/05 07:17:59;;;;;;;4.95;1.05;;;17.20;99.90;;;;;;5000333;28;20042;-77
2022/07/05 07:20:26;;;;;;;3.25;1.00;;;17.30;99.90;;;;;;5017389;28;20492;-77
2022/07/05 07:22:52;;;;;;;2.75;0.80;;;17.50;99.90;;;;;;5010277;28;20164;-77
2022/07/05 07:25:20;;;;;;;4.00;0.98;;;17.60;99.90;;;;;;4982432;28;20054;-77
2022/07/05 07:27:49;;;;;;;3.60;0.90;;;17.80;99.90;;;;;;5003411;28;20099;-77
2022/07/05 07:30:17;;;;;;;3.58;0.90;;;18.00;99.90;;;;;;5006065;28;20038;-78
2022/07/05 07:32:44;;;;;;;2.90;1.02;;;18.30;99.90;;;;;;5002374;28;20152;-77
2022/07/05 07:35:10;;;;;;;6.50;1.00;;;18.60;99.90;;;;;;5005275;28;20064;-77
2022/07/05 07:37:39;;;;;;;4.13;1.15;;;18.80;99.90;;;;;;5014210;28;20041;-77
2022/07/05 07:40:07;;;;;;;5.13;0.73;;;19.00;99.90;;;;;;5004068;28;20584;-77
2022/07/05 07:42:33;;;;;;;3.72;0.80;;;18.90;99.90;;;;;;5014899;28;20053;-77
2022/07/05 07:45:03;;;;;;;1.95;0.80;;;18.80;99.90;;;;;;5002021;28;20156;-78
2022/07/05 07:47:33;;;;;;;4.25;0.88;;;18.60;99.90;;;;;;5003946;28;20034;-77
2022/07/05 07:49:59;;;;;;;5.60;1.02;;;18.50;99.90;;;;;;5017081;28;20050;-77
2022/07/05 07:52:25;;;;;;;4.18;0.90;;;18.40;99.90;;;;;;4991540;28;20050;-77
2022/07/05 07:54:50;;;;;;;3.75;0.95;;;18.40;99.90;;;;;;5007781;28;20088;-77
2022/07/05 07:57:20;;;;;;;3.05;0.80;;;18.20;99.90;;;;;;5006527;28;20107;-78
2022/07/05 07:59:45;;;;;;;4.70;1.00;;;18.20;99.90;;;;;;5008178;28;20049;-77
2022/07/05 08:02:11;;;;;;;3.83;1.00;;;18.30;99.90;;;;;;5018401;28;20045;-77
2022/07/05 08:04:37;;;;;;;5.57;1.15;;;18.50;99.90;;;;;;5028885;28;20222;-77
2022/07/05 08:07:04;;;;;;;3.97;0.90;;;18.70;99.90;;;;;;5006306;28;20128;-77
2022/07/05 08:09:33;;;;;;;5.53;1.08;;;18.80;99.90;;;;;;5004336;28;20546;-76
2022/07/05 08:11:59;;;;;;;3.80;0.70;;;18.80;99.90;;;;;;5023566;28;20089;-77
2022/07/05 08:14:25;;;;;;;3.92;0.80;;;18.70;99.90;;;;;;4998441;28;20513;-77
2022/07/05 08:16:51;;;;;;;3.45;1.00;;;18.70;99.90;;;;;;5013260;28;20173;-77
2022/07/05 08:22:07;;;;;;;3.78;1.10;;;18.90;99.90;;;;;;4998365;28;20147;-78
2022/07/05 08:24:33;;;;;;;2.88;0.73;;;19.20;99.90;;;;;;5006766;28;20050;-78
2022/07/05 08:26:59;;;;;;;5.07;0.70;;;19.50;99.90;;;;;;4994231;28;20508;-77
2022/07/05 08:29:25;;;;;;;3.25;0.70;;;19.70;99.90;;;;;;4990565;28;20041;-77
2022/07/05 08:31:52;;;;;;;4.03;1.02;;;20.00;99.90;;;;;;5003016;28;20507;-78
2022/07/05 08:34:18;;;;;;;6.47;1.00;;;20.20;99.90;;;;;;5005951;28;20049;-77
2022/07/05 08:36:45;;;;;;;5.35;0.70;;;20.40;99.90;;;;;;5007311;28;20037;-78
2022/07/05 08:39:11;;;;;;;2.20;1.00;;;20.40;99.90;;;;;;4991574;28;20053;-77
2022/07/05 08:41:39;;;;;;;5.63;1.20;;;20.30;99.90;;;;;;5009267;28;20562;-78
2022/07/05 08:44:06;;;;;;;5.32;1.17;;;20.30;99.90;;;;;;5027086;28;20513;-78
2022/07/05 08:46:34;;;;;;;4.25;1.08;;;20.10;99.90;;;;;;5023305;28;20041;-78
2022/07/05 08:49:06;;;;;;;4.18;0.90;;;19.90;99.90;;;;;;5004186;28;20049;-77
2022/07/05 08:51:36;;;;;;;8.88;1.38;;;19.90;99.90;;;;;;4985608;28;20037;-77
2022/07/05 08:54:02;;;;;;;;;;;20.00;99.90;;;;;;5024612;28;20120;-78
2022/07/05 08:56:30;;;;;;;3.83;0.80;;;20.00;99.90;;;;;;5014787;28;19927;-78
2022/07/05 08:58:55;;;;;;;11.32;1.85;;;19.90;99.90;;;;;;5009887;28;20500;-77
2022/07/05 09:01:31;;;;;;;6.57;1.70;;;19.70;99.90;;;;;;4995435;28;20109;-77
2022/07/05 09:04:10;;;;;;;3.47;1.00;;;19.50;99.90;;;;;;5006058;28;20122;-77
2022/07/05 09:06:40;;;;;;;2.95;0.80;;;19.40;99.90;;;;;;5002992;28;20113;-77
2022/07/05 09:09:07;;;;;;;2.88;0.80;;;19.50;99.90;;;;;;4975210;28;20045;-78
2022/07/05 09:11:37;;;;;;;3.38;0.82;;;19.50;99.90;;;;;;4994902;28;20144;-77
2022/07/05 09:14:04;;;;;;;2.15;0.80;;;19.50;99.90;;;;;;5009430;28;20054;-77
2022/07/05 09:16:32;;;;;;;3.03;1.05;;;19.40;99.90;;;;;;5017919;28;20050;-77
2022/07/05 09:19:07;;;;;;;4.88;0.80;;;19.20;99.90;;;;;;5022266;28;20081;-76
2022/07/05 09:21:33;;;;;;;3.30;0.82;;;19.20;99.90;;;;;;5003151;28;20543;-77
2022/07/05 09:24:02;;;;;;;3.85;1.00;;;19.30;99.90;;;;;;5011016;28;20041;-77
2022/07/05 09:26:31;;;;;;;5.77;1.00;;;19.40;99.90;;;;;;5006692;28;20037;-77
2022/07/05 09:28:57;;;;;;;2.97;0.80;;;19.40;99.90;;;;;;5009667;28;20046;-77
2022/07/05 09:31:31;;;;;;;4.22;1.10;;;19.30;99.90;;;;;;5007883;28;20060;-77
2022/07/05 09:34:05;;;;;;;4.20;0.80;;;19.30;99.90;;;;;;5042850;28;20500;-77
2022/07/05 09:36:57;;;;;;;3.45;0.80;;;19.30;99.90;;;;;;5006547;28;20322;-78
2022/07/05 09:39:30;;;;;;;5.60;0.93;;;19.60;99.90;;;;;;5004823;28;20057;-77
2022/07/05 09:42:28;;;;;;;5.03;1.27;;;20.10;99.90;;;;;;5023391;28;20048;-77
2022/07/05 09:44:56;;;;;;;4.90;0.98;;;20.60;99.90;;;;;;4960348;28;20050;-76
2022/07/05 09:47:27;;;;;;;3.42;0.80;;;20.70;99.90;;;;;;5022913;28;20034;-77
2022/07/05 09:50:05;;;;;;;2.88;0.60;;;20.60;99.90;;;;;;5022976;28;20050;-83
2022/07/05 09:52:37;;;;;;;7.95;1.05;;;20.40;99.90;;;;;;5017088;28;20133;-84
2022/07/05 09:55:19;;;;;;;4.93;1.45;;;20.20;99.90;;;;;;5018370;28;20087;-78
2022/07/05 09:57:47;;;;;;;4.68;0.70;;;20.00;99.90;;;;;;4995755;28;20109;-77
2022/07/05 10:00:18;;;;;;;4.43;1.10;;;19.80;99.90;;;;;;5000218;28;20037;-77
2022/07/05 10:03:10;;;;;;;4.65;0.80;;;19.60;99.90;;;;;;5016407;28;20083;-77
2022/07/05 10:05:39;;;;;;;4.45;0.85;;;19.50;99.90;;;;;;5019681;28;20492;-78
2022/07/05 10:08:05;;;;;;;4.47;1.07;;;19.40;99.90;;;;;;4986927;28;20136;-78
2022/07/05 10:10:32;;;;;;;5.18;1.10;;;19.30;99.90;;;;;;5000963;28;20158;-77
2022/07/05 10:13:00;;;;;;;3.67;0.80;;;19.20;99.90;;;;;;5003701;28;20049;-77
2022/07/05 10:15:36;;;;;;;4.10;0.80;;;19.10;99.90;;;;;;4987007;28;20072;-77
2022/07/05 10:18:08;;;;;;;4.15;0.90;;;19.00;99.90;;;;;;4997777;28;20408;-77
2022/07/05 10:20:41;;;;;;;4.65;1.02;;;19.00;99.90;;;;;;5002858;28;20458;-77
2022/07/05 10:23:15;;;;;;;4.07;0.98;;;19.20;99.90;;;;;;5005254;28;20183;-77
2022/07/05 10:25:44;;;;;;;6.35;1.27;;;19.60;99.90;;;;;;5006649;28;20428;-77
2022/07/05 10:28:10;;;;;;;4.18;0.95;;;19.90;99.90;;;;;;5005329;28;20053;-77
2022/07/05 10:30:39;;;;;;;6.20;1.20;;;20.10;99.90;;;;;;4994227;28;20053;-78
2022/07/05 10:33:07;;;;;;;4.80;0.93;;;20.20;99.90;;;;;;4990844;28;21430;-77
2022/07/05 10:35:33;;;;;;;3.15;0.90;;;20.10;99.90;;;;;;5001799;28;20045;-78
2022/07/05 10:38:00;;;;;;;3.78;0.80;;;19.90;99.90;;;;;;5007644;28;20496;-77
2022/07/05 10:40:28;;;;;;;4.32;1.30;;;19.70;99.90;;;;;;4991311;28;20091;-77
2022/07/05 10:43:03;;;;;;;6.03;1.08;;;19.50;99.90;;;;;;5002622;28;20115;-77
2022/07/05 10:45:33;;;;;;;3.65;1.20;;;19.40;99.90;;;;;;5001441;28;20057;-77
2022/07/05 10:48:17;;;;;;;;;;;19.50;99.90;;;;;;5024349;28;20580;-75
2022/07/05 10:50:56;;;;;;;5.47;1.10;;;19.70;99.90;;;;;;5021718;28;19925;-78
2022/07/05 10:53:30;;;;;;;4.35;0.88;;;19.70;99.90;;;;;;5009128;28;20072;-78
2022/07/05 10:56:13;;;;;;;5.68;0.88;;;19.70;99.90;;;;;;5007041;28;20060;-78
2022/07/05 10:58:46;;;;;;;3.42;1.08;;;19.50;99.90;;;;;;5004437;28;20041;-77
2022/07/05 11:01:11;;;;;;;4.38;1.20;;;19.40;99.90;;;;;;4988182;28;20077;-77
2022/07/05 11:03:47;;;;;;;4.88;0.90;;;19.20;99.90;;;;;;5019792;28;20080;-77
2022/07/05 11:06:23;;;;;;;5.22;1.00;;;19.10;99.90;;;;;;4997689;28;20041;-77
2022/07/05 11:09:04;;;;;;;3.83;1.05;;;18.90;99.90;;;;;;5021248;28;20057;-78
2022/07/05 11:11:46;;;;;;;2.47;1.10;;;18.90;99.90;;;;;;5017140;28;20061;-78
2022/07/05 11:14:22;;;;;;;4.38;1.35;;;18.80;99.90;;;;;;5021546;28;20050;-78
2022/07/05 11:17:08;;;;;;;4.88;1.13;;;18.90;99.90;;;;;;5018946;28;20042;-77
2022/07/05 11:19:34;;;;;;;3.35;1.15;;;19.10;99.90;;;;;;5022360;28;20076;-77
2022/07/05 11:22:03;;;;;;;4.88;1.38;;;19.30;99.90;;;;;;4996483;28;20089;-78
2022/07/05 11:24:37;;;;;;;3.65;0.90;;;19.40;99.90;;;;;;5007611;28;20100;-77
2022/07/05 11:27:10;;;;;;;4.85;1.05;;;19.60;99.90;;;;;;5034174;28;20115;-77
2022/07/05 11:29:43;;;;;;;3.78;1.20;;;19.90;99.90;;;;;;5018588;28;20038;-77
2022/07/05 11:32:14;;;;;;;4.32;1.10;;;20.20;99.90;;;;;;5000017;28;20473;-77
2022/07/05 11:34:42;;;;;;;5.63;1.20;;;20.60;99.90;;;;;;4981755;28;20053;-77
2022/07/05 11:37:13;;;;;;;5.63;1.10;;;21.00;99.90;;;;;;5006616;28;20076;-77
2022/07/05 11:39:43;;;;;;;3.78;1.10;;;21.30;99.90;;;;;;5024624;28;20071;-78
2022/07/05 11:42:10;;;;;;;4.88;0.93;;;21.30;99.90;;;;;;5021712;28;20127;-78
2022/07/05 11:44:37;;;;;;;3.55;1.08;;;21.10;99.90;;;;;;5006905;28;20037;-78
2022/07/05 11:47:03;;;;;;;5.00;1.20;;;20.90;99.90;;;;;;5011323;28;20504;-77
2022/07/05 11:49:29;;;;;;;5.07;1.05;;;20.70;99.90;;;;;;5028621;28;20116;-77
2022/07/05 11:52:03;;;;;;;3.58;1.10;;;20.50;98.90;;;;;;5010353;28;20580;-76
2022/07/05 11:54:31;;;;;;;3.85;0.80;;;20.30;98.20;;;;;;5013501;28;20147;-77
2022/07/05 11:56:58;;;;;;;3.08;0.85;;;20.20;99.70;;;;;;5011378;28;20408;-77
2022/07/05 11:59:25;;;;;;;4.55;0.80;;;20.30;99.60;;;;;;5005766;28;20448;-75
2022/07/05 12:01:52;;;;;;;5.15;0.90;;;20.60;99.90;;;;;;5014075;28;20058;-78
2022/07/05 12:04:26;;;;;;;3.28;0.75;;;21.00;99.90;;;;;;5010265;28;20426;-77
2022/07/05 12:06:58;;;;;;;4.03;0.60;;;21.50;97.10;;;;;;5019540;28;20061;-77
2022/07/05 12:15:16;;;;;;;1.90;0.45;;;21.80;93.20;;;;;;5023972;28;20411;-81
2022/07/05 12:18:05;;;;;;;1.80;0.60;;;21.70;91.30;;;;;;5007219;28;20072;-80
2022/07/05 12:20:33;;;;;;;2.47;0.60;;;21.40;90.40;;;;;;5007975;28;20393;-79
2022/07/05 12:23:00;;;;;;;3.20;0.60;;;21.20;90.70;;;;;;5005590;28;20313;-80
2022/07/05 12:25:28;;;;;;;2.22;0.60;;;21.20;90.90;;;;;;5011069;28;20072;-79
2022/07/05 12:27:56;;;;;;;4.53;0.73;;;21.40;94.40;;;;;;5008642;28;20077;-80
2022/07/05 12:30:24;;;;;;;2.58;0.70;;;21.50;90.70;;;;;;5020390;28;20599;-79
2022/07/05 12:33:00;;;;;;;2.60;0.70;;;21.60;90.30;;;;;;4991803;28;20394;-80
2022/07/05 12:35:45;;;;;;;1.48;0.50;;;21.70;93.20;;;;;;5014960;28;20428;-79
2022/07/05 12:38:18;;;;;;;3.40;0.80;;;21.90;93.10;;;;;;5004450;28;20470;-80
2022/07/05 12:40:57;;;;;;;2.72;0.60;;;21.90;93.60;;;;;;5025659;28;20536;-79
2022/07/05 12:43:23;;;;;;;5.38;0.90;;;21.70;94.90;;;;;;5012875;28;20947;-79
2022/07/05 12:46:03;;;;;;;3.97;0.90;;;21.60;96.90;;;;;;5010311;28;20144;-79
2022/07/05 12:48:39;;;;;;;3.85;1.00;;;21.60;96.80;;;;;;5005075;28;20046;-77
2022/07/05 12:51:07;;;;;;;4.82;0.95;;;21.60;97.30;;;;;;4994500;28;20112;-80
2022/07/05 12:59:09;;;;;;;3.28;0.80;;;21.90;93.80;;;;;;5040865;28;20053;-79
2022/07/05 13:01:43;;;;;;;3.42;1.10;;;22.00;94.80;;;;;;5009064;28;20037;-79
2022/07/05 13:04:10;;;;;;;5.07;0.85;;;22.20;96.00;;;;;;5022402;28;20566;-83
2022/07/05 13:07:00;;;;;;;5.70;0.93;;;22.30;94.50;;;;;;5003084;28;20042;-78
2022/07/05 13:09:32;;;;;;;4.32;1.02;;;22.50;97.10;;;;;;4992476;28;20719;-79